Time;durP1;ratioP1;P1;durP2;ratioP2;P2;SDS_P1;SDS_P2;PMS_P1;PMS_P2;Temp;Humidity;BMP_temperature;BMP_pressure;BME280_temperature;BME280_humidity;BME280_pressure;Samples;Min_cycle;Max_cycle;Signal;HPM_P1;HPM_P2
2022/06/30 00:02:18;;;;;;;13.60;12.30;;;18.80;99.90;;;;;;5030592;28;20440;-36
2022/06/30 00:04:44;;;;;;;13.20;12.10;;;18.70;99.90;;;;;;5030797;28;20441;-36
2022/06/30 00:07:10;;;;;;;13.20;12.00;;;18.80;99.90;;;;;;5029981;28;20472;-37
2022/06/30 00:09:36;;;;;;;13.33;12.17;;;18.70;99.90;;;;;;5030522;28;20456;-36
2022/06/30 00:12:01;;;;;;;13.60;12.50;;;18.70;99.90;;;;;;5030360;28;20821;-36
2022/06/30 00:14:27;;;;;;;15.20;13.30;;;18.70;99.90;;;;;;5030742;28;20194;-36
2022/06/30 00:16:53;;;;;;;14.43;13.13;;;18.70;99.90;;;;;;5028572;28;20197;-36
2022/06/30 00:19:18;;;;;;;12.90;11.80;;;18.70;99.90;;;;;;5030544;28;20193;-36
2022/06/30 00:21:44;;;;;;;14.50;13.20;;;18.90;99.90;;;;;;5031963;28;20200;-36
2022/06/30 00:24:10;;;;;;;13.60;12.50;;;18.90;99.90;;;;;;5030332;28;20194;-36
2022/06/30 00:26:35;;;;;;;14.50;13.20;;;18.90;99.90;;;;;;5029810;28;20692;-36
2022/06/30 00:29:01;;;;;;;13.07;11.87;;;19.00;99.90;;;;;;5030282;28;20289;-36
2022/06/30 00:31:27;;;;;;;15.00;13.60;;;19.00;99.90;;;;;;5030484;28;20272;-36
2022/06/30 00:33:52;;;;;;;14.27;13.07;;;19.10;99.90;;;;;;5028201;28;20236;-36
2022/06/30 00:36:18;;;;;;;13.13;12.00;;;19.20;99.90;;;;;;5029003;28;20807;-36
2022/06/30 00:38:44;;;;;;;14.93;13.63;;;19.10;99.90;;;;;;5029541;28;20187;-37
2022/06/30 00:41:10;;;;;;;14.43;13.03;;;19.10;99.90;;;;;;5030069;28;20870;-36
2022/06/30 00:43:45;;;;;;;14.20;13.00;;;18.90;99.90;;;;;;5030125;28;20273;-36
2022/06/30 00:46:11;;;;;;;14.37;13.07;;;18.90;99.90;;;;;;5030053;28;20514;-36
2022/06/30 00:48:37;;;;;;;13.87;12.57;;;18.80;99.90;;;;;;5029173;28;20433;-36
2022/06/30 00:51:05;;;;;;;15.73;14.33;;;18.70;99.90;;;;;;5030024;28;20453;-36
2022/06/30 00:53:34;;;;;;;13.70;12.50;;;18.70;99.90;;;;;;5029773;28;20278;-36
2022/06/30 00:56:01;;;;;;;13.10;12.00;;;18.60;99.90;;;;;;5030077;28;20429;-36
2022/06/30 00:58:29;;;;;;;15.10;13.80;;;18.60;99.90;;;;;;5029286;28;20429;-36
2022/06/30 01:00:57;;;;;;;14.50;13.20;;;18.50;99.90;;;;;;5029826;28;20943;-36
2022/06/30 01:03:23;;;;;;;14.33;13.03;;;18.50;99.90;;;;;;5030005;28;20516;-36
2022/06/30 01:05:49;;;;;;;14.57;13.37;;;18.50;99.90;;;;;;5029878;28;20424;-36
2022/06/30 01:08:16;;;;;;;13.97;12.77;;;18.50;99.90;;;;;;5028975;28;20800;-36
2022/06/30 01:13:27;;;;;;;15.33;14.03;;;18.40;99.90;;;;;;5029666;28;20440;-36
2022/06/30 01:15:53;;;;;;;15.23;13.83;;;18.30;99.90;;;;;;5029833;28;20433;-36
2022/06/30 01:18:18;;;;;;;14.20;13.00;;;18.30;99.90;;;;;;5028860;28;20429;-36
2022/06/30 01:20:44;;;;;;;15.40;14.00;;;18.20;99.90;;;;;;5029733;28;20194;-36
2022/06/30 01:23:10;;;;;;;14.27;13.07;;;18.20;99.90;;;;;;5030543;28;20201;-36
2022/06/30 01:25:36;;;;;;;14.60;13.40;;;18.30;99.90;;;;;;5029868;28;20615;-36
2022/06/30 01:28:02;;;;;;;15.13;13.93;;;18.40;99.90;;;;;;5028852;28;20232;-36
2022/06/30 01:30:28;;;;;;;15.57;14.17;;;18.50;99.90;;;;;;5029601;28;20503;-36
2022/06/30 01:32:54;;;;;;;15.83;14.47;;;18.50;99.90;;;;;;5029523;28;20461;-36
2022/06/30 01:35:20;;;;;;;16.90;15.30;;;18.60;99.90;;;;;;5027921;28;20487;-37
2022/06/30 01:37:57;;;;;;;14.33;12.83;;;18.70;99.90;;;;;;5028901;28;20202;-36
2022/06/30 01:40:25;;;;;;;14.63;13.33;;;18.70;99.90;;;;;;5029582;28;20482;-36
2022/06/30 01:42:51;;;;;;;14.37;13.17;;;18.70;99.90;;;;;;5029369;28;20432;-36
2022/06/30 01:45:18;;;;;;;14.83;13.53;;;18.80;99.90;;;;;;5030867;28;20527;-36
2022/06/30 01:47:44;;;;;;;15.70;14.30;;;18.80;99.90;;;;;;5032538;28;20464;-36
2022/06/30 01:50:15;;;;;;;16.00;14.60;;;18.80;99.90;;;;;;5033329;28;20459;-36
2022/06/30 01:52:42;;;;;;;15.47;14.07;;;19.00;99.90;;;;;;5033483;28;20432;-36
2022/06/30 01:55:08;;;;;;;15.70;14.10;;;19.20;99.90;;;;;;5033240;28;20425;-36
2022/06/30 01:57:35;;;;;;;13.90;12.60;;;19.20;99.90;;;;;;5032740;28;20425;-36
2022/06/30 02:00:02;;;;;;;14.73;13.50;;;19.20;99.90;;;;;;5032901;28;20442;-36
2022/06/30 02:02:28;;;;;;;14.10;12.97;;;19.20;99.90;;;;;;5032983;28;20477;-36
2022/06/30 02:04:54;;;;;;;14.80;13.47;;;19.30;99.90;;;;;;5033048;28;20817;-37
2022/06/30 02:07:21;;;;;;;14.33;13.07;;;19.30;99.90;;;;;;5032215;28;20190;-36
2022/06/30 02:09:51;;;;;;;15.67;14.27;;;19.30;99.90;;;;;;5032860;28;20183;-36
2022/06/30 02:15:02;;;;;;;14.47;13.13;;;19.50;99.90;;;;;;5032766;28;20456;-36
2022/06/30 02:17:28;;;;;;;14.87;13.57;;;19.50;99.90;;;;;;5032149;28;20795;-36
2022/06/30 02:19:54;;;;;;;14.67;13.37;;;19.50;99.90;;;;;;5032727;28;20432;-36
2022/06/30 02:22:19;;;;;;;16.30;14.67;;;19.50;99.90;;;;;;5035132;28;20260;-36
2022/06/30 02:24:45;;;;;;;15.93;14.00;;;19.50;99.90;;;;;;5032637;28;20190;-36
2022/06/30 02:27:11;;;;;;;15.77;14.37;;;19.60;99.90;;;;;;5031877;28;20199;-36
2022/06/30 02:29:37;;;;;;;15.37;13.87;;;19.60;99.90;;;;;;5032478;28;20232;-36
2022/06/30 02:32:03;;;;;;;15.63;14.23;;;19.60;99.90;;;;;;5032677;28;20293;-36
2022/06/30 02:34:29;;;;;;;14.67;13.47;;;19.60;99.90;;;;;;5030875;28;20325;-36
2022/06/30 02:36:55;;;;;;;15.97;14.47;;;19.60;99.90;;;;;;5031875;28;20994;-36
2022/06/30 02:39:21;;;;;;;15.37;14.07;;;19.60;99.90;;;;;;5032204;28;20579;-36
2022/06/30 02:41:47;;;;;;;16.50;14.93;;;19.60;99.90;;;;;;5032191;28;20461;-36
2022/06/30 02:44:13;;;;;;;17.00;14.67;;;19.60;99.90;;;;;;5032057;28;20479;-36
2022/06/30 02:46:39;;;;;;;16.10;14.80;;;19.60;99.90;;;;;;5031950;28;20269;-36
2022/06/30 02:49:04;;;;;;;14.50;13.23;;;19.60;99.90;;;;;;5032016;28;20213;-36
2022/06/30 02:51:30;;;;;;;15.20;13.80;;;19.60;99.90;;;;;;5032155;28;20533;-36
2022/06/30 02:53:56;;;;;;;16.03;14.67;;;19.60;99.90;;;;;;5032030;28;20287;-36
2022/06/30 02:56:22;;;;;;;15.13;13.80;;;19.50;99.90;;;;;;5031608;28;20182;-36
2022/06/30 02:58:49;;;;;;;15.53;14.20;;;19.50;99.90;;;;;;5031334;28;20425;-36
2022/06/30 03:01:15;;;;;;;16.20;14.70;;;19.50;99.90;;;;;;5032266;28;20213;-36
2022/06/30 03:03:40;;;;;;;15.50;14.20;;;19.60;99.90;;;;;;5031944;28;20425;-36
2022/06/30 03:06:06;;;;;;;14.70;13.33;;;19.50;99.90;;;;;;5031937;28;20435;-36
2022/06/30 03:08:32;;;;;;;15.20;13.90;;;19.50;99.90;;;;;;5031223;28;20202;-36
2022/06/30 03:10:58;;;;;;;14.73;13.50;;;19.40;99.90;;;;;;5031544;28;20469;-36
2022/06/30 03:13:25;;;;;;;14.47;13.27;;;19.30;99.90;;;;;;5031640;28;20429;-36
2022/06/30 03:15:51;;;;;;;15.60;14.30;;;19.40;99.90;;;;;;5031619;28;20429;-36
2022/06/30 03:18:17;;;;;;;16.17;14.70;;;19.50;99.90;;;;;;5031081;28;20413;-36
2022/06/30 03:20:42;;;;;;;15.60;14.30;;;19.30;99.90;;;;;;5031663;28;20190;-36
2022/06/30 03:23:08;;;;;;;14.03;12.93;;;19.40;99.90;;;;;;5034008;28;20253;-36
2022/06/30 03:25:34;;;;;;;16.47;14.80;;;19.40;99.90;;;;;;5031308;28;20195;-37
2022/06/30 03:27:59;;;;;;;15.70;14.30;;;19.40;99.90;;;;;;5030677;28;20193;-36
2022/06/30 03:30:26;;;;;;;15.87;14.40;;;19.30;99.90;;;;;;5031427;28;20268;-36
2022/06/30 03:32:52;;;;;;;16.23;14.83;;;19.30;99.90;;;;;;5031600;28;20449;-36
2022/06/30 03:35:18;;;;;;;16.30;14.90;;;19.30;99.90;;;;;;5029813;28;20437;-36
2022/06/30 03:37:44;;;;;;;16.13;14.60;;;19.20;99.90;;;;;;5030391;28;20190;-36
2022/06/30 03:40:10;;;;;;;16.33;14.83;;;19.20;99.90;;;;;;5031120;28;20925;-36
2022/06/30 03:42:36;;;;;;;16.10;14.60;;;19.20;99.90;;;;;;5030885;28;20429;-36
2022/06/30 03:45:02;;;;;;;14.77;13.50;;;19.20;99.90;;;;;;5031375;28;20436;-36
2022/06/30 03:47:28;;;;;;;16.00;14.60;;;19.10;99.90;;;;;;5030533;28;20266;-36
2022/06/30 03:49:53;;;;;;;15.67;14.37;;;19.10;99.90;;;;;;5031077;28;20529;-36
2022/06/30 03:52:19;;;;;;;15.33;14.03;;;18.90;99.90;;;;;;5030953;28;20690;-36
2022/06/30 03:54:45;;;;;;;15.83;14.30;;;18.80;99.90;;;;;;5030624;28;20186;-36
2022/06/30 03:57:10;;;;;;;14.33;13.03;;;18.80;99.90;;;;;;5030605;28;20191;-36
2022/06/30 03:59:37;;;;;;;16.03;14.60;;;18.80;99.90;;;;;;5030635;28;20198;-36
2022/06/30 04:02:04;;;;;;;15.23;13.83;;;18.80;99.90;;;;;;5030911;28;20202;-36
2022/06/30 04:04:30;;;;;;;16.53;15.07;;;18.70;99.90;;;;;;5030760;28;20448;-36
2022/06/30 04:06:55;;;;;;;15.43;14.13;;;18.60;99.90;;;;;;5029887;28;20430;-36
2022/06/30 04:09:21;;;;;;;16.00;14.63;;;18.50;99.90;;;;;;5029891;28;20421;-36
2022/06/30 04:11:47;;;;;;;14.50;13.30;;;18.50;99.90;;;;;;5030626;28;20242;-36
2022/06/30 04:14:12;;;;;;;14.63;13.33;;;18.50;99.90;;;;;;5030641;28;20183;-36
2022/06/30 04:16:38;;;;;;;15.70;14.30;;;18.50;99.90;;;;;;5030068;28;20187;-36
2022/06/30 04:19:03;;;;;;;15.00;13.70;;;18.50;99.90;;;;;;5030394;28;20178;-36
2022/06/30 04:21:29;;;;;;;14.80;13.60;;;18.50;99.90;;;;;;5032170;28;20220;-36
2022/06/30 04:23:55;;;;;;;16.03;14.43;;;18.50;99.90;;;;;;5030260;28;20198;-36
2022/06/30 04:26:21;;;;;;;17.07;15.47;;;18.60;99.90;;;;;;5030201;28;20194;-36
2022/06/30 04:28:46;;;;;;;16.70;15.20;;;18.80;99.90;;;;;;5029801;28;20190;-36
2022/06/30 04:33:56;;;;;;;15.57;14.17;;;18.90;99.90;;;;;;5029457;28;20186;-36
2022/06/30 04:36:22;;;;;;;15.20;13.90;;;19.00;99.90;;;;;;5029921;28;20432;-36
2022/06/30 04:38:47;;;;;;;16.00;14.50;;;19.10;99.90;;;;;;5029875;28;20191;-36
2022/06/30 04:41:25;;;;;;;15.77;14.33;;;19.20;99.90;;;;;;5029038;28;20499;-36
2022/06/30 04:43:53;;;;;;;15.43;14.13;;;19.20;99.90;;;;;;5026139;28;20296;-36
2022/06/30 04:46:18;;;;;;;16.03;14.57;;;19.30;99.90;;;;;;5029936;28;20927;-36
2022/06/30 04:48:44;;;;;;;16.87;15.37;;;19.40;99.90;;;;;;5028053;28;20539;-36
2022/06/30 04:51:10;;;;;;;16.67;15.27;;;19.50;99.90;;;;;;5029839;28;20214;-36
2022/06/30 04:53:35;;;;;;;15.77;14.27;;;19.60;99.90;;;;;;5029876;28;20198;-36
2022/06/30 04:56:01;;;;;;;15.07;13.77;;;19.70;99.90;;;;;;5030116;28;20190;-36
2022/06/30 04:58:27;;;;;;;16.70;15.03;;;19.80;99.90;;;;;;5029256;28;20672;-36
2022/06/30 05:00:52;;;;;;;16.37;14.77;;;19.90;99.90;;;;;;5029911;28;20313;-36
2022/06/30 05:03:18;;;;;;;17.37;15.73;;;20.00;99.90;;;;;;5028803;28;20637;-36
2022/06/30 05:05:44;;;;;;;15.67;14.37;;;20.10;99.90;;;;;;5026427;28;20186;-36
2022/06/30 05:08:10;;;;;;;16.70;15.23;;;20.20;99.90;;;;;;5026610;28;20202;-36
2022/06/30 05:10:36;;;;;;;15.93;14.43;;;20.30;99.90;;;;;;5029539;28;20203;-36
2022/06/30 05:13:01;;;;;;;15.57;14.27;;;20.40;99.90;;;;;;5029479;28;20201;-36
2022/06/30 05:15:27;;;;;;;16.00;14.50;;;20.50;99.90;;;;;;5029653;28;20190;-36
2022/06/30 05:17:53;;;;;;;15.73;14.23;;;20.70;99.90;;;;;;5019602;28;20748;-36
2022/06/30 05:20:19;;;;;;;16.63;14.97;;;20.80;99.90;;;;;;5032305;28;20198;-37
2022/06/30 05:22:44;;;;;;;16.60;15.10;;;20.90;99.90;;;;;;5037000;28;20615;-36
2022/06/30 05:27:54;;;;;;;17.13;15.53;;;21.10;99.90;;;;;;5033026;28;20221;-36
2022/06/30 05:30:20;;;;;;;16.70;15.20;;;21.20;99.90;;;;;;5033733;28;20490;-36
2022/06/30 05:32:46;;;;;;;16.37;14.87;;;21.20;99.90;;;;;;5033755;28;20182;-36
2022/06/30 05:35:12;;;;;;;15.70;14.40;;;21.30;99.90;;;;;;5031719;28;20265;-36
2022/06/30 05:37:38;;;;;;;16.27;14.83;;;21.40;99.90;;;;;;5028598;28;20416;-36
2022/06/30 05:40:05;;;;;;;15.23;13.93;;;21.60;99.90;;;;;;5033279;28;20413;-36
2022/06/30 05:42:30;;;;;;;14.80;13.50;;;21.70;99.90;;;;;;5033354;28;20413;-36
2022/06/30 05:44:56;;;;;;;15.67;14.17;;;21.80;99.90;;;;;;5033146;28;20795;-36
2022/06/30 05:47:22;;;;;;;14.60;13.30;;;21.90;99.90;;;;;;5032376;28;20191;-36
2022/06/30 05:49:48;;;;;;;15.10;13.90;;;22.00;99.90;;;;;;5033121;28;20186;-36
2022/06/30 05:52:13;;;;;;;14.50;13.30;;;22.10;99.90;;;;;;5033033;28;20284;-36
2022/06/30 05:54:39;;;;;;;14.30;13.10;;;22.30;99.90;;;;;;5024312;28;20236;-36
2022/06/30 05:57:05;;;;;;;13.77;12.63;;;22.40;99.90;;;;;;5026903;28;20194;-36
2022/06/30 05:59:32;;;;;;;14.63;13.33;;;22.50;99.90;;;;;;5028072;28;20289;-37
2022/06/30 06:01:59;;;;;;;13.77;12.63;;;22.60;99.90;;;;;;5032910;28;20515;-36
2022/06/30 06:04:25;;;;;;;14.10;12.80;;;22.80;99.90;;;;;;5033129;28;20429;-36
2022/06/30 06:06:51;;;;;;;14.00;12.77;;;22.90;99.90;;;;;;5032540;28;20885;-36
2022/06/30 06:09:17;;;;;;;13.67;12.57;;;23.00;99.90;;;;;;5028307;28;20441;-36
2022/06/30 06:11:43;;;;;;;13.30;12.10;;;23.10;99.90;;;;;;5016315;28;20885;-36
2022/06/30 06:14:09;;;;;;;14.13;12.97;;;23.20;99.90;;;;;;5032855;28;20209;-36
2022/06/30 06:16:35;;;;;;;14.17;12.97;;;23.20;99.90;;;;;;5032217;28;20464;-36
2022/06/30 06:19:01;;;;;;;13.97;12.77;;;23.30;99.90;;;;;;5032552;28;21119;-36
2022/06/30 06:21:27;;;;;;;14.43;13.23;;;23.40;99.90;;;;;;5034892;28;20940;-36
2022/06/30 06:23:54;;;;;;;13.20;12.20;;;23.50;99.90;;;;;;5032275;28;20425;-36
2022/06/30 06:26:20;;;;;;;12.40;11.50;;;23.60;99.90;;;;;;5032779;28;20290;-37
2022/06/30 06:31:31;;;;;;;13.00;11.90;;;23.80;99.90;;;;;;5031472;28;20847;-36
2022/06/30 06:33:57;;;;;;;12.70;11.50;;;23.90;99.90;;;;;;5031669;28;20465;-36
2022/06/30 06:36:23;;;;;;;12.00;10.90;;;24.10;99.90;;;;;;5032218;28;20500;-36
2022/06/30 06:38:48;;;;;;;13.23;12.03;;;24.20;99.90;;;;;;5031833;28;20190;-36
2022/06/30 06:41:15;;;;;;;12.33;11.27;;;24.30;99.90;;;;;;5032291;28;20194;-36
2022/06/30 06:43:41;;;;;;;11.20;10.27;;;24.40;99.90;;;;;;5032148;28;20182;-36
2022/06/30 06:46:07;;;;;;;11.53;10.53;;;24.50;99.90;;;;;;5032091;28;20421;-36
2022/06/30 06:48:33;;;;;;;11.60;10.60;;;24.70;99.90;;;;;;5031486;28;20517;-36
2022/06/30 06:50:58;;;;;;;11.70;10.70;;;24.70;99.90;;;;;;5031381;28;20297;-36
2022/06/30 06:53:24;;;;;;;10.80;9.80;;;24.80;99.90;;;;;;5031262;28;20225;-36
2022/06/30 06:55:50;;;;;;;11.00;10.10;;;25.00;99.90;;;;;;5031710;28;20222;-37
2022/06/30 06:58:15;;;;;;;10.33;9.53;;;25.00;99.90;;;;;;5031233;28;20775;-37
2022/06/30 07:00:42;;;;;;;11.00;9.90;;;25.20;99.90;;;;;;5031903;28;20249;-36
2022/06/30 07:03:07;;;;;;;10.80;9.90;;;25.20;99.90;;;;;;5032062;28;20195;-36
2022/06/30 07:05:33;;;;;;;9.67;8.80;;;25.30;99.90;;;;;;5030864;28;20973;-38
2022/06/30 07:08:00;;;;;;;10.37;9.57;;;25.30;99.90;;;;;;5031299;28;20225;-36
2022/06/30 07:10:27;;;;;;;9.77;8.97;;;25.40;99.90;;;;;;5031604;28;20551;-37
2022/06/30 07:12:54;;;;;;;9.83;9.10;;;25.50;99.90;;;;;;5031633;28;20421;-36
2022/06/30 07:15:21;;;;;;;9.20;8.50;;;25.60;99.90;;;;;;5031980;28;20425;-37
2022/06/30 07:17:48;;;;;;;9.33;8.63;;;25.70;99.90;;;;;;5030961;28;20425;-37
2022/06/30 07:20:14;;;;;;;8.90;8.03;;;25.70;99.90;;;;;;5031725;28;20929;-36
2022/06/30 07:22:39;;;;;;;9.70;8.90;;;25.70;99.90;;;;;;5033957;28;20529;-36
2022/06/30 07:25:06;;;;;;;8.70;8.10;;;25.80;99.90;;;;;;5031350;28;20179;-37
2022/06/30 07:27:32;;;;;;;8.37;7.77;;;25.90;99.90;;;;;;5030830;28;20296;-36
2022/06/30 07:29:57;;;;;;;10.03;9.20;;;26.00;99.90;;;;;;5031235;28;20513;-36
2022/06/30 07:32:23;;;;;;;8.47;7.67;;;26.10;99.90;;;;;;5031362;28;20586;-36
2022/06/30 07:34:49;;;;;;;7.70;7.00;;;26.10;99.90;;;;;;5029857;28;20561;-36
2022/06/30 07:37:15;;;;;;;7.57;7.00;;;26.10;99.90;;;;;;5030796;28;20229;-36
2022/06/30 07:39:40;;;;;;;7.87;7.27;;;26.20;99.90;;;;;;5025767;28;20195;-36
2022/06/30 07:42:06;;;;;;;7.47;6.67;;;26.20;99.90;;;;;;5021349;28;20229;-36
2022/06/30 07:44:32;;;;;;;7.80;7.20;;;26.30;99.90;;;;;;5030269;28;20274;-37
2022/06/30 07:46:57;;;;;;;8.90;8.00;;;26.40;99.90;;;;;;5029927;28;20201;-36
2022/06/30 07:49:23;;;;;;;8.97;7.90;;;26.50;99.90;;;;;;5030978;28;20815;-36
2022/06/30 07:51:49;;;;;;;8.07;7.47;;;26.50;99.90;;;;;;5030872;28;20198;-36
2022/06/30 07:54:15;;;;;;;7.70;6.87;;;26.40;99.90;;;;;;5030333;28;20277;-36
2022/06/30 07:56:41;;;;;;;7.90;7.30;;;26.50;99.90;;;;;;5029858;28;20213;-37
2022/06/30 07:59:07;;;;;;;7.80;7.10;;;26.40;99.90;;;;;;5030422;28;20433;-36
2022/06/30 08:01:33;;;;;;;7.60;6.90;;;26.40;99.90;;;;;;5029499;28;20436;-36
2022/06/30 08:03:58;;;;;;;7.97;7.37;;;26.40;99.90;;;;;;5030583;28;20584;-36
2022/06/30 08:06:24;;;;;;;7.60;6.80;;;26.50;99.90;;;;;;5030392;28;20186;-36
2022/06/30 08:08:53;;;;;;;7.60;7.00;;;26.50;99.90;;;;;;5029558;28;20228;-37
2022/06/30 08:11:18;;;;;;;8.97;8.07;;;26.50;99.90;;;;;;5030629;28;20692;-37
2022/06/30 08:13:44;;;;;;;8.10;7.40;;;26.50;99.90;;;;;;5030550;28;20538;-36
2022/06/30 08:16:11;;;;;;;6.60;6.10;;;26.40;99.90;;;;;;5030411;28;20205;-37
2022/06/30 08:18:37;;;;;;;6.97;6.37;;;26.40;99.90;;;;;;5029516;28;20217;-36
2022/06/30 08:21:03;;;;;;;7.80;5.73;;;26.30;99.90;;;;;;5028485;28;20421;-37
2022/06/30 08:23:29;;;;;;;6.57;4.90;;;26.20;99.90;;;;;;5020559;28;20443;-36
2022/06/30 08:25:55;;;;;;;4.97;4.57;;;26.20;99.90;;;;;;5030322;28;20780;-37
2022/06/30 08:28:20;;;;;;;5.73;4.37;;;26.20;99.90;;;;;;5029665;28;20417;-36
2022/06/30 08:30:50;;;;;;;4.93;4.33;;;26.30;99.80;;;;;;5030092;28;20316;-36
2022/06/30 08:33:16;;;;;;;5.23;4.23;;;26.30;99.70;;;;;;5029139;28;20174;-36
2022/06/30 08:35:43;;;;;;;4.10;3.80;;;26.40;99.30;;;;;;5029807;28;20761;-36
2022/06/30 08:38:09;;;;;;;4.67;4.27;;;26.50;99.20;;;;;;5029205;28;21080;-36
2022/06/30 08:43:22;;;;;;;4.67;4.30;;;26.70;98.90;;;;;;5028180;28;20433;-36
2022/06/30 08:45:49;;;;;;;4.97;4.57;;;26.80;98.60;;;;;;5023294;28;20428;-37
2022/06/30 08:48:15;;;;;;;4.47;4.07;;;26.90;98.40;;;;;;5029293;28;20413;-36
2022/06/30 08:50:43;;;;;;;3.73;3.43;;;26.90;96.40;;;;;;5025061;28;20875;-36
2022/06/30 08:53:10;;;;;;;4.10;3.60;;;27.00;96.10;;;;;;5026453;28;20247;-36
2022/06/30 08:55:36;;;;;;;4.03;3.63;;;27.10;96.00;;;;;;5026496;28;20425;-36
2022/06/30 08:58:07;;;;;;;4.17;3.80;;;27.10;95.90;;;;;;5028996;28;20469;-37
2022/06/30 09:00:34;;;;;;;3.03;2.83;;;27.30;96.00;;;;;;5023337;28;20535;-37
2022/06/30 09:03:02;;;;;;;6.30;3.60;;;27.40;95.20;;;;;;5021464;28;20421;-36
2022/06/30 09:05:28;;;;;;;5.23;3.50;;;27.40;93.20;;;;;;5029738;28;20436;-36
2022/06/30 09:07:54;;;;;;;3.77;3.47;;;27.50;94.30;;;;;;5025736;28;20776;-36
2022/06/30 09:10:22;;;;;;;6.37;4.00;;;27.60;94.40;;;;;;5021709;28;20201;-37
2022/06/30 09:13:04;;;;;;;5.23;3.60;;;27.70;94.20;;;;;;5026210;28;20216;-36
2022/06/30 09:15:38;;;;;;;4.13;3.80;;;27.80;92.70;;;;;;5020655;28;20942;-37
2022/06/30 09:18:04;;;;;;;3.93;3.63;;;27.80;93.80;;;;;;5024028;28;20413;-37
2022/06/30 09:20:37;;;;;;;4.10;3.10;;;27.90;93.50;;;;;;5025090;28;20417;-36
2022/06/30 09:23:19;;;;;;;3.20;2.90;;;28.00;92.00;;;;;;5011301;28;20463;-36
2022/06/30 09:25:50;;;;;;;5.33;3.40;;;28.10;91.00;;;;;;5018757;28;20946;-36
2022/06/30 09:28:36;;;;;;;5.97;3.67;;;28.20;91.50;;;;;;5019041;28;20521;-37
2022/06/30 09:31:02;;;;;;;4.03;3.60;;;28.30;91.20;;;;;;5023611;28;20463;-37
2022/06/30 09:33:35;;;;;;;5.07;3.97;;;28.30;89.80;;;;;;5016616;28;20430;-37
2022/06/30 09:36:23;;;;;;;5.70;3.43;;;28.40;90.30;;;;;;5018489;28;20194;-37
2022/06/30 09:39:10;;;;;;;3.80;3.50;;;28.30;89.60;;;;;;5017756;28;20431;-36
2022/06/30 09:41:39;;;;;;;3.70;3.30;;;28.40;90.80;;;;;;5017943;28;20438;-37
2022/06/30 09:44:26;;;;;;;4.00;3.70;;;28.40;90.80;;;;;;5023608;28;20948;-36
2022/06/30 09:46:56;;;;;;;5.33;3.20;;;28.60;89.10;;;;;;5028346;28;20477;-38
2022/06/30 09:49:39;;;;;;;3.50;3.20;;;28.60;90.90;;;;;;5029178;28;20482;-37
2022/06/30 09:52:25;;;;;;;4.53;3.50;;;28.70;85.70;;;;;;5029123;28;21089;-36
2022/06/30 09:55:06;;;;;;;3.73;3.00;;;28.70;85.20;;;;;;5029367;28;20599;-37
2022/06/30 09:57:52;;;;;;;3.63;3.33;;;28.70;86.30;;;;;;5028523;28;20773;-36
2022/06/30 10:00:18;;;;;;;4.47;3.00;;;28.80;85.20;;;;;;5027400;28;20966;-37
2022/06/30 10:02:46;;;;;;;2.97;2.70;;;28.80;81.70;;;;;;5028801;28;20516;-36
2022/06/30 10:05:13;;;;;;;2.77;2.57;;;28.80;77.70;;;;;;5029305;28;20420;-36
2022/06/30 10:07:40;;;;;;;3.10;2.90;;;28.90;79.40;;;;;;5031865;28;20483;-36
2022/06/30 10:10:09;;;;;;;4.77;2.53;;;28.90;74.60;;;;;;5032758;28;20826;-37
2022/06/30 10:12:36;;;;;;;3.27;2.97;;;28.80;75.40;;;;;;5032665;28;20986;-36
2022/06/30 10:15:03;;;;;;;3.10;2.80;;;28.90;78.10;;;;;;5032572;28;20413;-37
2022/06/30 10:17:34;;;;;;;3.10;2.40;;;29.00;79.90;;;;;;5031988;28;20451;-36
2022/06/30 10:20:01;;;;;;;2.77;2.57;;;29.10;81.30;;;;;;5031162;28;20433;-36
2022/06/30 10:22:28;;;;;;;3.90;2.70;;;29.20;82.00;;;;;;5035221;28;20429;-36
2022/06/30 10:24:55;;;;;;;2.73;2.53;;;29.30;79.90;;;;;;5032363;28;20424;-37
2022/06/30 10:27:24;;;;;;;2.80;2.60;;;29.30;78.80;;;;;;5031950;28;20465;-37
2022/06/30 10:29:59;;;;;;;3.27;2.97;;;29.40;76.70;;;;;;5032457;28;20741;-36
2022/06/30 10:32:53;;;;;;;4.53;2.83;;;29.40;78.40;;;;;;5032210;28;20456;-37
2022/06/30 10:35:56;;;;;;;3.63;2.90;;;29.40;81.10;;;;;;5031442;28;20416;-37
2022/06/30 10:38:35;;;;;;;3.30;2.90;;;29.50;82.60;;;;;;5031687;28;20444;-36
2022/06/30 10:41:13;;;;;;;3.40;2.97;;;29.50;80.50;;;;;;5032062;28;20413;-37
2022/06/30 10:44:04;;;;;;;6.23;2.70;;;29.60;81.40;;;;;;5030648;28;20413;-37
2022/06/30 10:46:56;;;;;;;4.03;2.80;;;29.60;81.00;;;;;;5028606;28;20424;-36
2022/06/30 10:49:26;;;;;;;4.73;3.67;;;29.70;80.10;;;;;;5031081;28;20420;-37
2022/06/30 10:51:56;;;;;;;3.57;3.27;;;29.60;72.20;;;;;;5032424;28;21180;-37
2022/06/30 10:54:33;;;;;;;4.00;3.10;;;29.60;80.30;;;;;;5032118;28;20421;-36
2022/06/30 10:57:01;;;;;;;3.60;3.23;;;29.60;78.10;;;;;;5031521;28;20421;-37
2022/06/30 10:59:36;;;;;;;3.30;3.00;;;29.70;80.00;;;;;;5031912;28;20460;-37
2022/06/30 11:02:07;;;;;;;3.53;3.23;;;29.80;83.10;;;;;;5031896;28;20507;-37
2022/06/30 11:04:37;;;;;;;2.90;2.70;;;29.80;75.70;;;;;;5031929;28;20436;-36
2022/06/30 11:07:23;;;;;;;3.13;2.93;;;29.60;76.00;;;;;;5031379;28;20421;-37
2022/06/30 11:09:52;;;;;;;3.37;3.07;;;29.70;77.30;;;;;;5031803;28;20417;-36
2022/06/30 11:12:41;;;;;;;3.27;2.97;;;29.70;81.30;;;;;;5031654;28;20449;-36
2022/06/30 11:15:08;;;;;;;6.97;3.50;;;29.90;78.10;;;;;;5031520;28;20421;-37
2022/06/30 11:17:39;;;;;;;3.13;2.80;;;30.00;74.80;;;;;;5030791;28;20950;-37
2022/06/30 11:20:12;;;;;;;3.50;3.00;;;30.00;75.10;;;;;;5030397;28;20476;-37
2022/06/30 11:22:39;;;;;;;4.63;2.80;;;30.20;76.20;;;;;;5032390;28;20433;-36
2022/06/30 11:27:17;;;;;;;2.77;2.57;;;30.10;72.10;;;;;;5031571;28;20784;-36
2022/06/30 11:28:00;;;;;;;3.30;2.33;;;30.10;70.20;;;;;;5030676;28;20433;-37
2022/06/30 11:30:30;;;;;;;2.97;2.60;;;30.00;69.70;;;;;;5030196;28;20444;-37
2022/06/30 11:32:57;;;;;;;2.53;2.33;;;29.80;71.10;;;;;;5031359;28;20508;-37
2022/06/30 11:35:29;;;;;;;3.30;3.00;;;29.70;71.90;;;;;;5030321;28;20540;-36
2022/06/30 11:37:55;;;;;;;3.20;2.60;;;29.70;75.40;;;;;;5030692;28;20508;-37
2022/06/30 11:40:21;;;;;;;3.10;2.90;;;29.80;69.80;;;;;;5031322;28;20839;-36
2022/06/30 11:42:49;;;;;;;2.83;2.63;;;29.80;71.40;;;;;;5031154;28;20417;-37
2022/06/30 11:45:24;;;;;;;4.73;3.00;;;29.80;73.70;;;;;;5031257;28;20439;-37
2022/06/30 11:48:05;;;;;;;3.93;3.37;;;29.90;76.60;;;;;;5030354;28;20453;-36
2022/06/30 11:50:31;;;;;;;3.27;3.07;;;30.00;72.00;;;;;;5031035;28;20459;-36
2022/06/30 11:53:00;;;;;;;3.70;3.30;;;29.90;72.00;;;;;;5031134;28;20456;-36
2022/06/30 11:55:27;;;;;;;4.47;3.30;;;29.90;73.20;;;;;;5030994;28;20189;-38
2022/06/30 11:57:54;;;;;;;5.13;3.30;;;29.90;73.40;;;;;;5030262;28;20428;-37
2022/06/30 12:00:25;;;;;;;3.60;3.00;;;30.00;71.30;;;;;;5030708;28;20501;-37
2022/06/30 12:02:51;;;;;;;2.77;2.57;;;30.00;70.80;;;;;;5030921;28;20437;-36
2022/06/30 12:05:19;;;;;;;3.07;2.67;;;30.10;72.50;;;;;;5030707;28;20433;-37
2022/06/30 12:07:46;;;;;;;3.80;3.00;;;30.20;77.00;;;;;;5030190;28;20569;-37
2022/06/30 12:10:14;;;;;;;3.10;2.90;;;30.10;75.40;;;;;;5030620;28;20464;-37
2022/06/30 12:12:40;;;;;;;3.80;2.70;;;30.20;75.00;;;;;;5030480;28;20871;-37
2022/06/30 12:15:14;;;;;;;3.20;2.90;;;30.30;74.30;;;;;;5030538;28;21152;-37
2022/06/30 12:17:45;;;;;;;3.43;3.07;;;30.30;70.50;;;;;;5029969;28;20480;-36
2022/06/30 12:20:13;;;;;;;3.63;3.20;;;30.30;72.60;;;;;;5030584;28;20547;-36
2022/06/30 12:22:41;;;;;;;4.67;2.97;;;30.30;71.70;;;;;;5032286;28;20429;-36
2022/06/30 12:25:08;;;;;;;3.27;3.00;;;30.30;70.30;;;;;;5030248;28;20417;-37
2022/06/30 12:27:45;;;;;;;4.60;2.90;;;30.10;71.00;;;;;;5029730;28;20448;-37
2022/06/30 12:30:14;;;;;;;4.73;3.73;;;30.10;75.30;;;;;;5029878;28;20486;-37
2022/06/30 12:32:45;;;;;;;3.87;3.43;;;30.20;73.40;;;;;;5030296;28;20567;-37
2022/06/30 12:35:12;;;;;;;3.57;3.27;;;30.40;74.80;;;;;;5029369;28;20486;-38
2022/06/30 12:37:42;;;;;;;3.00;2.80;;;30.40;71.00;;;;;;5029387;28;20980;-37
2022/06/30 12:40:15;;;;;;;3.33;3.03;;;30.40;74.20;;;;;;5030309;28;20752;-37
2022/06/30 12:42:45;;;;;;;3.40;3.10;;;30.40;70.10;;;;;;5029996;28;20430;-36
2022/06/30 12:45:51;;;;;;;3.60;3.10;;;30.40;72.20;;;;;;5030255;28;20461;-37
2022/06/30 12:48:38;;;;;;;3.43;3.10;;;30.40;71.60;;;;;;5029505;28;20490;-37
2022/06/30 12:51:03;;;;;;;3.03;2.80;;;30.30;73.70;;;;;;5029878;28;20941;-36
2022/06/30 12:53:29;;;;;;;3.43;3.13;;;30.40;73.10;;;;;;5030042;28;20461;-37
2022/06/30 12:55:58;;;;;;;3.40;3.10;;;30.40;75.20;;;;;;5029955;28;20592;-39
2022/06/30 12:58:24;;;;;;;4.30;3.43;;;30.50;71.50;;;;;;5029171;28;20182;-37